sensor_id;sensor_type;location;lat;lon;timestamp;temperature;humidity
10300;DHT22;5195;48.562;9.192;2022-12-29T00:01:23;9.30;52.40
10300;DHT22;5195;48.562;9.192;2022-12-29T00:03:59;9.50;51.70
10300;DHT22;5195;48.562;9.192;2022-12-29T00:06:35;9.90;51.30
10300;DHT22;5195;48.562;9.192;2022-12-29T00:09:12;9.80;51.60
10300;DHT22;5195;48.562;9.192;2022-12-29T00:11:47;9.60;52.10
10300;DHT22;5195;48.562;9.192;2022-12-29T00:14:23;9.50;52.70
10300;DHT22;5195;48.562;9.192;2022-12-29T00:17:18;9.30;53.10
10300;DHT22;5195;48.562;9.192;2022-12-29T00:19:54;9.20;53.50
10300;DHT22;5195;48.562;9.192;2022-12-29T00:22:49;9.10;53.80
10300;DHT22;5195;48.562;9.192;2022-12-29T00:25:45;9.50;52.00
10300;DHT22;5195;48.562;9.192;2022-12-29T00:28:40;10.00;49.80
10300;DHT22;5195;48.562;9.192;2022-12-29T00:31:35;10.40;48.70
10300;DHT22;5195;48.562;9.192;2022-12-29T00:34:31;10.30;49.20
10300;DHT22;5195;48.562;9.192;2022-12-29T00:37:26;10.40;48.80
10300;DHT22;5195;48.562;9.192;2022-12-29T00:40:02;10.20;49.30
10300;DHT22;5195;48.562;9.192;2022-12-29T00:42:57;9.90;50.90
10300;DHT22;5195;48.562;9.192;2022-12-29T00:45:53;9.60;51.60
10300;DHT22;5195;48.562;9.192;2022-12-29T00:48:28;9.40;52.10
10300;DHT22;5195;48.562;9.192;2022-12-29T00:51:24;9.60;51.60
10300;DHT22;5195;48.562;9.192;2022-12-29T00:54:00;9.60;51.80
10300;DHT22;5195;48.562;9.192;2022-12-29T00:56:36;9.70;51.10
10300;DHT22;5195;48.562;9.192;2022-12-29T00:59:11;9.80;51.60
10300;DHT22;5195;48.562;9.192;2022-12-29T01:01:47;9.60;52.10
10300;DHT22;5195;48.562;9.192;2022-12-29T01:04:23;9.70;51.30
10300;DHT22;5195;48.562;9.192;2022-12-29T01:06:58;9.80;51.70
10300;DHT22;5195;48.562;9.192;2022-12-29T01:09:34;9.60;52.10
10300;DHT22;5195;48.562;9.192;2022-12-29T01:12:32;9.50;52.70
10300;DHT22;5195;48.562;9.192;2022-12-29T01:15:16;9.30;53.00
10300;DHT22;5195;48.562;9.192;2022-12-29T01:17:52;9.50;52.00
10300;DHT22;5195;48.562;9.192;2022-12-29T01:20:28;9.60;52.10
10300;DHT22;5195;48.562;9.192;2022-12-29T01:23:04;9.80;51.50
10300;DHT22;5195;48.562;9.192;2022-12-29T01:25:39;9.80;51.80
10300;DHT22;5195;48.562;9.192;2022-12-29T01:28:17;9.80;51.90
10300;DHT22;5195;48.562;9.192;2022-12-29T01:30:54;9.70;51.80
10300;DHT22;5195;48.562;9.192;2022-12-29T01:33:30;9.60;52.50
10300;DHT22;5195;48.562;9.192;2022-12-29T01:36:10;9.60;52.50
10300;DHT22;5195;48.562;9.192;2022-12-29T01:38:44;9.80;51.90
10300;DHT22;5195;48.562;9.192;2022-12-29T01:41:20;9.80;52.20
10300;DHT22;5195;48.562;9.192;2022-12-29T01:43:56;9.70;52.70
10300;DHT22;5195;48.562;9.192;2022-12-29T01:46:36;9.60;53.20
10300;DHT22;5195;48.562;9.192;2022-12-29T01:49:11;9.80;52.10
10300;DHT22;5195;48.562;9.192;2022-12-29T01:51:56;10.60;48.80
10300;DHT22;5195;48.562;9.192;2022-12-29T01:54:33;10.70;49.30
10300;DHT22;5195;48.562;9.192;2022-12-29T01:57:11;11.00;48.30
10300;DHT22;5195;48.562;9.192;2022-12-29T01:59:45;11.30;47.90
10300;DHT22;5195;48.562;9.192;2022-12-29T02:02:18;11.10;48.50
10300;DHT22;5195;48.562;9.192;2022-12-29T02:04:54;11.20;48.10
10300;DHT22;5195;48.562;9.192;2022-12-29T02:07:29;11.10;48.70
10300;DHT22;5195;48.562;9.192;2022-12-29T02:10:05;11.20;48.40
10300;DHT22;5195;48.562;9.192;2022-12-29T02:12:41;11.10;48.90
10300;DHT22;5195;48.562;9.192;2022-12-29T02:15:17;11.40;47.80
10300;DHT22;5195;48.562;9.192;2022-12-29T02:18:22;11.40;47.80
10300;DHT22;5195;48.562;9.192;2022-12-29T02:23:57;11.00;49.20
10300;DHT22;5195;48.562;9.192;2022-12-29T02:40:51;10.80;49.50
10300;DHT22;5195;48.562;9.192;2022-12-29T02:49:20;10.60;50.50
10300;DHT22;5195;48.562;9.192;2022-12-29T02:51:57;11.30;47.90
10300;DHT22;5195;48.562;9.192;2022-12-29T02:54:32;11.30;47.90
10300;DHT22;5195;48.562;9.192;2022-12-29T03:00:13;11.40;47.20
10300;DHT22;5195;48.562;9.192;2022-12-29T03:05:33;12.00;46.10
10300;DHT22;5195;48.562;9.192;2022-12-29T03:08:28;11.90;47.00
10300;DHT22;5195;48.562;9.192;2022-12-29T03:11:07;11.50;47.70
10300;DHT22;5195;48.562;9.192;2022-12-29T03:13:47;11.30;48.50
10300;DHT22;5195;48.562;9.192;2022-12-29T03:16:45;11.10;49.00
10300;DHT22;5195;48.562;9.192;2022-12-29T03:19:25;11.10;47.60
10300;DHT22;5195;48.562;9.192;2022-12-29T03:25:03;11.50;46.60
10300;DHT22;5195;48.562;9.192;2022-12-29T03:27:44;11.80;47.00
10300;DHT22;5195;48.562;9.192;2022-12-29T03:30:18;11.70;46.40
10300;DHT22;5195;48.562;9.192;2022-12-29T03:32:55;11.50;47.30
10300;DHT22;5195;48.562;9.192;2022-12-29T03:35:31;11.30;48.00
10300;DHT22;5195;48.562;9.192;2022-12-29T03:40:42;10.90;48.80
10300;DHT22;5195;48.562;9.192;2022-12-29T03:43:17;11.00;47.30
10300;DHT22;5195;48.562;9.192;2022-12-29T03:45:53;11.00;47.20
10300;DHT22;5195;48.562;9.192;2022-12-29T03:48:28;11.10;47.80
10300;DHT22;5195;48.562;9.192;2022-12-29T03:51:04;11.00;48.30
10300;DHT22;5195;48.562;9.192;2022-12-29T03:53:41;10.90;48.90
10300;DHT22;5195;48.562;9.192;2022-12-29T03:56:16;10.80;49.20
10300;DHT22;5195;48.562;9.192;2022-12-29T03:58:53;10.70;49.50
10300;DHT22;5195;48.562;9.192;2022-12-29T04:01:29;10.60;49.60
10300;DHT22;5195;48.562;9.192;2022-12-29T04:04:06;10.90;47.80
10300;DHT22;5195;48.562;9.192;2022-12-29T04:06:42;11.30;46.70
10300;DHT22;5195;48.562;9.192;2022-12-29T04:09:17;11.30;47.20
10300;DHT22;5195;48.562;9.192;2022-12-29T04:11:54;10.90;48.50
10300;DHT22;5195;48.562;9.192;2022-12-29T04:14:33;10.90;48.40
10300;DHT22;5195;48.562;9.192;2022-12-29T04:17:08;11.00;47.30
10300;DHT22;5195;48.562;9.192;2022-12-29T04:19:44;11.40;46.30
10300;DHT22;5195;48.562;9.192;2022-12-29T04:22:21;11.70;45.60
10300;DHT22;5195;48.562;9.192;2022-12-29T04:24:57;11.70;46.00
10300;DHT22;5195;48.562;9.192;2022-12-29T04:27:33;11.70;45.90
10300;DHT22;5195;48.562;9.192;2022-12-29T04:30:09;11.40;46.80
10300;DHT22;5195;48.562;9.192;2022-12-29T04:32:45;11.40;46.60
10300;DHT22;5195;48.562;9.192;2022-12-29T04:35:21;11.40;46.60
10300;DHT22;5195;48.562;9.192;2022-12-29T04:37:56;11.20;47.30
10300;DHT22;5195;48.562;9.192;2022-12-29T04:40:32;10.90;48.40
10300;DHT22;5195;48.562;9.192;2022-12-29T04:43:08;10.90;48.40
10300;DHT22;5195;48.562;9.192;2022-12-29T04:45:45;11.10;46.90
10300;DHT22;5195;48.562;9.192;2022-12-29T04:48:19;11.10;47.30
10300;DHT22;5195;48.562;9.192;2022-12-29T04:50:55;11.00;47.80
10300;DHT22;5195;48.562;9.192;2022-12-29T04:53:30;11.10;46.80
10300;DHT22;5195;48.562;9.192;2022-12-29T04:56:06;11.10;47.30
10300;DHT22;5195;48.562;9.192;2022-12-29T04:58:41;10.90;47.80
10300;DHT22;5195;48.562;9.192;2022-12-29T05:01:17;10.70;48.30
10300;DHT22;5195;48.562;9.192;2022-12-29T05:03:53;10.60;48.80
10300;DHT22;5195;48.562;9.192;2022-12-29T05:06:28;10.50;49.70
10300;DHT22;5195;48.562;9.192;2022-12-29T05:09:04;10.80;47.70
10300;DHT22;5195;48.562;9.192;2022-12-29T05:11:39;11.10;46.70
10300;DHT22;5195;48.562;9.192;2022-12-29T05:14:15;11.20;47.20
10300;DHT22;5195;48.562;9.192;2022-12-29T05:16:51;11.00;47.90
10300;DHT22;5195;48.562;9.192;2022-12-29T05:19:26;10.90;48.50
10300;DHT22;5195;48.562;9.192;2022-12-29T05:22:03;11.10;47.00
10300;DHT22;5195;48.562;9.192;2022-12-29T05:24:38;11.50;46.20
10300;DHT22;5195;48.562;9.192;2022-12-29T05:27:15;11.40;46.80
10300;DHT22;5195;48.562;9.192;2022-12-29T05:29:50;11.40;47.40
10300;DHT22;5195;48.562;9.192;2022-12-29T05:32:26;11.60;46.40
10300;DHT22;5195;48.562;9.192;2022-12-29T05:35:02;11.50;46.80
10300;DHT22;5195;48.562;9.192;2022-12-29T05:37:37;11.30;47.40
10300;DHT22;5195;48.562;9.192;2022-12-29T05:40:14;11.40;47.00
10300;DHT22;5195;48.562;9.192;2022-12-29T05:42:49;11.40;47.00
10300;DHT22;5195;48.562;9.192;2022-12-29T05:45:25;11.60;46.30
10300;DHT22;5195;48.562;9.192;2022-12-29T05:48:00;11.60;46.90
10300;DHT22;5195;48.562;9.192;2022-12-29T05:50:36;11.40;47.50
10300;DHT22;5195;48.562;9.192;2022-12-29T05:53:11;11.50;46.50
10300;DHT22;5195;48.562;9.192;2022-12-29T05:55:47;11.60;47.10
10300;DHT22;5195;48.562;9.192;2022-12-29T05:58:23;11.70;45.90
10300;DHT22;5195;48.562;9.192;2022-12-29T06:00:58;11.70;46.50
10300;DHT22;5195;48.562;9.192;2022-12-29T06:03:34;11.80;45.80
10300;DHT22;5195;48.562;9.192;2022-12-29T06:06:09;11.80;46.50
10300;DHT22;5195;48.562;9.192;2022-12-29T06:08:46;11.70;46.40
10300;DHT22;5195;48.562;9.192;2022-12-29T06:11:21;11.70;46.40
10300;DHT22;5195;48.562;9.192;2022-12-29T06:13:57;12.10;46.00
10300;DHT22;5195;48.562;9.192;2022-12-29T06:16:33;11.70;47.20
10300;DHT22;5195;48.562;9.192;2022-12-29T06:19:09;11.70;47.20
10300;DHT22;5195;48.562;9.192;2022-12-29T06:21:46;11.50;47.90
10300;DHT22;5195;48.562;9.192;2022-12-29T06:24:22;11.70;46.90
10300;DHT22;5195;48.562;9.192;2022-12-29T06:26:57;11.70;47.40
10300;DHT22;5195;48.562;9.192;2022-12-29T06:29:33;11.80;47.00
10300;DHT22;5195;48.562;9.192;2022-12-29T06:32:08;12.10;46.00
10300;DHT22;5195;48.562;9.192;2022-12-29T06:34:44;12.30;45.70
10300;DHT22;5195;48.562;9.192;2022-12-29T06:37:20;12.20;46.40
10300;DHT22;5195;48.562;9.192;2022-12-29T06:39:55;11.90;47.20
10300;DHT22;5195;48.562;9.192;2022-12-29T06:42:31;11.60;47.80
10300;DHT22;5195;48.562;9.192;2022-12-29T06:45:07;12.00;47.00
10300;DHT22;5195;48.562;9.192;2022-12-29T06:47:43;12.00;46.60
10300;DHT22;5195;48.562;9.192;2022-12-29T06:50:18;11.90;47.00
10300;DHT22;5195;48.562;9.192;2022-12-29T06:52:55;11.60;48.50
10300;DHT22;5195;48.562;9.192;2022-12-29T06:55:30;11.60;48.40
10300;DHT22;5195;48.562;9.192;2022-12-29T06:58:06;11.40;49.00
10300;DHT22;5195;48.562;9.192;2022-12-29T07:00:41;11.30;49.40
10300;DHT22;5195;48.562;9.192;2022-12-29T07:03:17;11.20;49.70
10300;DHT22;5195;48.562;9.192;2022-12-29T07:05:53;11.40;48.60
10300;DHT22;5195;48.562;9.192;2022-12-29T07:08:28;11.50;48.90
10300;DHT22;5195;48.562;9.192;2022-12-29T07:11:05;11.60;48.80
10300;DHT22;5195;48.562;9.192;2022-12-29T07:13:41;11.50;48.70
10300;DHT22;5195;48.562;9.192;2022-12-29T07:16:17;11.60;49.10
10300;DHT22;5195;48.562;9.192;2022-12-29T07:18:53;11.60;48.90
10300;DHT22;5195;48.562;9.192;2022-12-29T07:21:29;11.60;48.90
10300;DHT22;5195;48.562;9.192;2022-12-29T07:24:05;11.60;49.20
10300;DHT22;5195;48.562;9.192;2022-12-29T07:26:41;11.30;50.00
10300;DHT22;5195;48.562;9.192;2022-12-29T07:29:17;11.30;50.00
10300;DHT22;5195;48.562;9.192;2022-12-29T07:31:53;11.10;50.30
10300;DHT22;5195;48.562;9.192;2022-12-29T07:34:29;11.00;50.60
10300;DHT22;5195;48.562;9.192;2022-12-29T07:37:05;10.90;50.90
10300;DHT22;5195;48.562;9.192;2022-12-29T07:39:40;11.10;50.20
10300;DHT22;5195;48.562;9.192;2022-12-29T07:42:15;11.20;50.40
10300;DHT22;5195;48.562;9.192;2022-12-29T07:44:51;11.10;50.70
10300;DHT22;5195;48.562;9.192;2022-12-29T07:47:27;11.00;51.10
10300;DHT22;5195;48.562;9.192;2022-12-29T07:50:03;10.90;51.50
10300;DHT22;5195;48.562;9.192;2022-12-29T07:52:39;11.60;49.70
10300;DHT22;5195;48.562;9.192;2022-12-29T07:55:15;11.60;49.70
10300;DHT22;5195;48.562;9.192;2022-12-29T07:57:52;11.70;50.00
10300;DHT22;5195;48.562;9.192;2022-12-29T08:00:26;12.20;49.30
10300;DHT22;5195;48.562;9.192;2022-12-29T08:03:02;12.20;48.60
10300;DHT22;5195;48.562;9.192;2022-12-29T08:05:37;12.20;49.10
10300;DHT22;5195;48.562;9.192;2022-12-29T08:08:13;12.00;49.70
10300;DHT22;5195;48.562;9.192;2022-12-29T08:10:48;11.90;50.20
10300;DHT22;5195;48.562;9.192;2022-12-29T08:13:24;12.10;49.40
10300;DHT22;5195;48.562;9.192;2022-12-29T08:16:00;12.10;49.70
10300;DHT22;5195;48.562;9.192;2022-12-29T08:18:35;12.40;48.70
10300;DHT22;5195;48.562;9.192;2022-12-29T08:21:12;12.30;49.60
10300;DHT22;5195;48.562;9.192;2022-12-29T08:23:47;12.20;49.50
10300;DHT22;5195;48.562;9.192;2022-12-29T08:26:24;12.10;50.00
10300;DHT22;5195;48.562;9.192;2022-12-29T08:29:01;12.30;49.00
10300;DHT22;5195;48.562;9.192;2022-12-29T08:31:36;12.20;48.90
10300;DHT22;5195;48.562;9.192;2022-12-29T08:34:13;12.70;47.80
10300;DHT22;5195;48.562;9.192;2022-12-29T08:36:49;12.70;48.30
10300;DHT22;5195;48.562;9.192;2022-12-29T08:39:24;12.90;47.20
10300;DHT22;5195;48.562;9.192;2022-12-29T08:42:00;13.20;46.70
10300;DHT22;5195;48.562;9.192;2022-12-29T08:44:36;13.50;46.20
10300;DHT22;5195;48.562;9.192;2022-12-29T08:47:13;13.10;47.50
10300;DHT22;5195;48.562;9.192;2022-12-29T08:49:48;13.10;47.50
10300;DHT22;5195;48.562;9.192;2022-12-29T08:52:25;12.70;48.60
10300;DHT22;5195;48.562;9.192;2022-12-29T08:55:00;12.70;48.60
10300;DHT22;5195;48.562;9.192;2022-12-29T08:57:36;12.60;49.00
10300;DHT22;5195;48.562;9.192;2022-12-29T09:00:12;12.50;49.20
10300;DHT22;5195;48.562;9.192;2022-12-29T09:02:47;12.40;49.40
10300;DHT22;5195;48.562;9.192;2022-12-29T09:05:23;12.40;49.50
10300;DHT22;5195;48.562;9.192;2022-12-29T09:07:59;12.70;48.30
10300;DHT22;5195;48.562;9.192;2022-12-29T09:10:35;12.70;48.20
10300;DHT22;5195;48.562;9.192;2022-12-29T09:13:11;12.90;47.00
10300;DHT22;5195;48.562;9.192;2022-12-29T09:15:47;13.60;45.80
10300;DHT22;5195;48.562;9.192;2022-12-29T09:18:23;13.60;45.60
10300;DHT22;5195;48.562;9.192;2022-12-29T09:20:59;13.50;46.30
10300;DHT22;5195;48.562;9.192;2022-12-29T09:23:34;13.30;47.10
10300;DHT22;5195;48.562;9.192;2022-12-29T09:26:11;13.30;46.60
10300;DHT22;5195;48.562;9.192;2022-12-29T09:28:46;13.60;46.40
10300;DHT22;5195;48.562;9.192;2022-12-29T09:31:22;13.60;47.00
10300;DHT22;5195;48.562;9.192;2022-12-29T09:33:58;13.30;47.50
10300;DHT22;5195;48.562;9.192;2022-12-29T09:36:34;13.40;47.10
10300;DHT22;5195;48.562;9.192;2022-12-29T09:39:10;13.30;47.60
10300;DHT22;5195;48.562;9.192;2022-12-29T09:47:22;13.30;48.20
10300;DHT22;5195;48.562;9.192;2022-12-29T09:50:32;13.30;47.90
10300;DHT22;5195;48.562;9.192;2022-12-29T09:53:19;13.50;48.00
10300;DHT22;5195;48.562;9.192;2022-12-29T09:55:56;13.40;47.90
10300;DHT22;5195;48.562;9.192;2022-12-29T09:58:39;13.80;47.60
10300;DHT22;5195;48.562;9.192;2022-12-29T10:04:05;13.80;47.60
10300;DHT22;5195;48.562;9.192;2022-12-29T10:06:53;13.60;48.10
10300;DHT22;5195;48.562;9.192;2022-12-29T10:18:46;13.20;48.70
10300;DHT22;5195;48.562;9.192;2022-12-29T10:24:07;13.90;47.20
10300;DHT22;5195;48.562;9.192;2022-12-29T10:26:43;13.80;47.80
10300;DHT22;5195;48.562;9.192;2022-12-29T10:29:19;13.50;48.50
10300;DHT22;5195;48.562;9.192;2022-12-29T10:32:04;13.30;49.10
10300;DHT22;5195;48.562;9.192;2022-12-29T10:34:44;13.40;48.50
10300;DHT22;5195;48.562;9.192;2022-12-29T10:37:27;13.70;47.80
10300;DHT22;5195;48.562;9.192;2022-12-29T10:39:58;14.00;47.10
10300;DHT22;5195;48.562;9.192;2022-12-29T10:42:40;13.80;47.60
10300;DHT22;5195;48.562;9.192;2022-12-29T10:45:15;13.90;47.50
10300;DHT22;5195;48.562;9.192;2022-12-29T10:47:54;13.70;48.00
10300;DHT22;5195;48.562;9.192;2022-12-29T10:50:26;13.50;48.70
10300;DHT22;5195;48.562;9.192;2022-12-29T10:53:02;13.20;49.20
10300;DHT22;5195;48.562;9.192;2022-12-29T10:55:38;13.30;49.30
10300;DHT22;5195;48.562;9.192;2022-12-29T10:58:13;13.30;49.20
10300;DHT22;5195;48.562;9.192;2022-12-29T11:00:50;13.40;49.50
10300;DHT22;5195;48.562;9.192;2022-12-29T11:06:25;13.40;49.20
10300;DHT22;5195;48.562;9.192;2022-12-29T11:09:12;13.40;49.50
10300;DHT22;5195;48.562;9.192;2022-12-29T11:11:47;13.40;49.50
10300;DHT22;5195;48.562;9.192;2022-12-29T11:14:30;13.90;49.30
10300;DHT22;5195;48.562;9.192;2022-12-29T11:17:05;13.80;49.20
10300;DHT22;5195;48.562;9.192;2022-12-29T11:19:41;13.80;49.30
10300;DHT22;5195;48.562;9.192;2022-12-29T11:22:29;13.70;50.00
10300;DHT22;5195;48.562;9.192;2022-12-29T11:25:06;13.80;49.50
10300;DHT22;5195;48.562;9.192;2022-12-29T11:27:42;14.20;49.10
10300;DHT22;5195;48.562;9.192;2022-12-29T11:30:22;14.60;48.60
10300;DHT22;5195;48.562;9.192;2022-12-29T11:32:54;14.50;48.90
10300;DHT22;5195;48.562;9.192;2022-12-29T11:38:22;14.30;49.80
10300;DHT22;5195;48.562;9.192;2022-12-29T11:40:56;14.00;50.50
10300;DHT22;5195;48.562;9.192;2022-12-29T11:43:40;14.00;51.70
10300;DHT22;5195;48.562;9.192;2022-12-29T11:46:16;13.90;51.90
10300;DHT22;5195;48.562;9.192;2022-12-29T11:48:50;13.90;53.30
10300;DHT22;5195;48.562;9.192;2022-12-29T11:51:27;13.80;53.30
10300;DHT22;5195;48.562;9.192;2022-12-29T11:54:02;13.80;53.90
10300;DHT22;5195;48.562;9.192;2022-12-29T11:56:39;13.90;54.80
10300;DHT22;5195;48.562;9.192;2022-12-29T12:05:03;14.40;52.70
10300;DHT22;5195;48.562;9.192;2022-12-29T12:07:41;14.20;52.80
10300;DHT22;5195;48.562;9.192;2022-12-29T12:10:30;14.20;52.80
10300;DHT22;5195;48.562;9.192;2022-12-29T12:13:19;14.20;52.50
10300;DHT22;5195;48.562;9.192;2022-12-29T12:16:05;14.20;52.50
10300;DHT22;5195;48.562;9.192;2022-12-29T12:21:34;13.90;52.60
10300;DHT22;5195;48.562;9.192;2022-12-29T12:27:26;14.00;52.10
10300;DHT22;5195;48.562;9.192;2022-12-29T12:30:04;13.70;52.70
10300;DHT22;5195;48.562;9.192;2022-12-29T12:38:48;13.90;53.30
10300;DHT22;5195;48.562;9.192;2022-12-29T12:41:37;13.70;53.30
10300;DHT22;5195;48.562;9.192;2022-12-29T12:47:21;13.60;53.40
10300;DHT22;5195;48.562;9.192;2022-12-29T12:50:24;13.20;53.90
10300;DHT22;5195;48.562;9.192;2022-12-29T12:53:13;13.40;54.90
10300;DHT22;5195;48.562;9.192;2022-12-29T12:56:11;13.20;54.70
10300;DHT22;5195;48.562;9.192;2022-12-29T13:10:21;13.50;56.20
10300;DHT22;5195;48.562;9.192;2022-12-29T13:16:18;13.10;56.30
10300;DHT22;5195;48.562;9.192;2022-12-29T13:18:59;12.80;56.60
10300;DHT22;5195;48.562;9.192;2022-12-29T13:27:28;12.70;57.20
10300;DHT22;5195;48.562;9.192;2022-12-29T13:35:27;13.20;56.10
10300;DHT22;5195;48.562;9.192;2022-12-29T13:38:10;13.00;56.50
10300;DHT22;5195;48.562;9.192;2022-12-29T13:40:36;12.90;57.00
10300;DHT22;5195;48.562;9.192;2022-12-29T13:43:10;12.80;57.40
10300;DHT22;5195;48.562;9.192;2022-12-29T13:45:45;12.70;57.70
10300;DHT22;5195;48.562;9.192;2022-12-29T13:48:23;12.60;57.90
10300;DHT22;5195;48.562;9.192;2022-12-29T13:50:59;12.70;58.20
10300;DHT22;5195;48.562;9.192;2022-12-29T13:56:40;13.10;57.00
10300;DHT22;5195;48.562;9.192;2022-12-29T14:07:59;13.20;56.40
10300;DHT22;5195;48.562;9.192;2022-12-29T14:10:38;13.10;56.70
10300;DHT22;5195;48.562;9.192;2022-12-29T14:15:55;13.40;55.80
10300;DHT22;5195;48.562;9.192;2022-12-29T14:18:31;13.30;56.10
10300;DHT22;5195;48.562;9.192;2022-12-29T14:21:17;13.50;55.10
10300;DHT22;5195;48.562;9.192;2022-12-29T14:23:54;13.80;54.30
10300;DHT22;5195;48.562;9.192;2022-12-29T14:32:00;14.10;52.60
10300;DHT22;5195;48.562;9.192;2022-12-29T14:34:42;14.10;52.60
10300;DHT22;5195;48.562;9.192;2022-12-29T14:37:33;13.70;53.40
10300;DHT22;5195;48.562;9.192;2022-12-29T14:42:54;13.40;53.90
10300;DHT22;5195;48.562;9.192;2022-12-29T14:45:29;13.30;54.10
10300;DHT22;5195;48.562;9.192;2022-12-29T14:48:20;13.10;54.50
10300;DHT22;5195;48.562;9.192;2022-12-29T14:50:42;13.10;54.40
10300;DHT22;5195;48.562;9.192;2022-12-29T14:53:44;13.10;54.60
10300;DHT22;5195;48.562;9.192;2022-12-29T14:56:19;12.60;55.30
10300;DHT22;5195;48.562;9.192;2022-12-29T14:59:00;12.50;55.20
10300;DHT22;5195;48.562;9.192;2022-12-29T15:01:39;12.20;56.10
10300;DHT22;5195;48.562;9.192;2022-12-29T15:04:18;12.20;55.90
10300;DHT22;5195;48.562;9.192;2022-12-29T15:06:52;12.40;55.50
10300;DHT22;5195;48.562;9.192;2022-12-29T15:09:30;12.80;54.80
10300;DHT22;5195;48.562;9.192;2022-12-29T15:12:28;12.70;55.40
10300;DHT22;5195;48.562;9.192;2022-12-29T15:14:59;12.50;55.30
10300;DHT22;5195;48.562;9.192;2022-12-29T15:17:34;12.60;54.70
10300;DHT22;5195;48.562;9.192;2022-12-29T15:20:21;12.60;54.90
10300;DHT22;5195;48.562;9.192;2022-12-29T15:23:10;12.70;54.30
10300;DHT22;5195;48.562;9.192;2022-12-29T15:25:58;13.00;53.50
10300;DHT22;5195;48.562;9.192;2022-12-29T15:28:24;12.80;53.70
10300;DHT22;5195;48.562;9.192;2022-12-29T15:31:04;12.80;53.30
10300;DHT22;5195;48.562;9.192;2022-12-29T15:33:39;12.70;53.70
10300;DHT22;5195;48.562;9.192;2022-12-29T15:36:20;12.40;54.20
10300;DHT22;5195;48.562;9.192;2022-12-29T15:38:52;12.30;55.00
10300;DHT22;5195;48.562;9.192;2022-12-29T15:41:47;12.30;54.30
10300;DHT22;5195;48.562;9.192;2022-12-29T15:44:38;12.50;54.20
10300;DHT22;5195;48.562;9.192;2022-12-29T15:47:17;12.40;53.80
10300;DHT22;5195;48.562;9.192;2022-12-29T15:50:01;12.50;53.60
10300;DHT22;5195;48.562;9.192;2022-12-29T15:52:29;12.60;53.30
10300;DHT22;5195;48.562;9.192;2022-12-29T15:55:05;12.60;53.30
10300;DHT22;5195;48.562;9.192;2022-12-29T15:57:42;12.60;53.10
10300;DHT22;5195;48.562;9.192;2022-12-29T16:00:24;12.90;52.70
10300;DHT22;5195;48.562;9.192;2022-12-29T16:03:02;12.70;53.00
10300;DHT22;5195;48.562;9.192;2022-12-29T16:05:37;12.80;52.80
10300;DHT22;5195;48.562;9.192;2022-12-29T16:08:33;12.60;53.00
10300;DHT22;5195;48.562;9.192;2022-12-29T16:11:32;12.50;53.20
10300;DHT22;5195;48.562;9.192;2022-12-29T16:16:59;12.70;52.50
10300;DHT22;5195;48.562;9.192;2022-12-29T16:19:26;12.60;52.90
10300;DHT22;5195;48.562;9.192;2022-12-29T16:21:51;12.70;52.60
10300;DHT22;5195;48.562;9.192;2022-12-29T16:24:26;12.70;52.60
10300;DHT22;5195;48.562;9.192;2022-12-29T16:26:49;12.70;52.60
10300;DHT22;5195;48.562;9.192;2022-12-29T16:29:14;12.60;52.90
10300;DHT22;5195;48.562;9.192;2022-12-29T16:31:54;12.40;53.40
10300;DHT22;5195;48.562;9.192;2022-12-29T16:34:23;12.40;53.10
10300;DHT22;5195;48.562;9.192;2022-12-29T16:39:30;12.10;53.80
10300;DHT22;5195;48.562;9.192;2022-12-29T16:41:54;12.20;53.50
10300;DHT22;5195;48.562;9.192;2022-12-29T16:44:22;12.50;53.20
10300;DHT22;5195;48.562;9.192;2022-12-29T16:47:01;12.50;53.20
10300;DHT22;5195;48.562;9.192;2022-12-29T16:49:26;12.50;53.30
10300;DHT22;5195;48.562;9.192;2022-12-29T16:51:51;12.50;53.30
10300;DHT22;5195;48.562;9.192;2022-12-29T16:54:24;12.30;53.70
10300;DHT22;5195;48.562;9.192;2022-12-29T16:56:48;12.10;54.20
10300;DHT22;5195;48.562;9.192;2022-12-29T16:59:30;12.50;53.10
10300;DHT22;5195;48.562;9.192;2022-12-29T17:01:53;12.50;53.10
10300;DHT22;5195;48.562;9.192;2022-12-29T17:04:19;12.80;52.40
10300;DHT22;5195;48.562;9.192;2022-12-29T17:06:45;13.20;51.50
10300;DHT22;5195;48.562;9.192;2022-12-29T17:09:22;13.10;51.40
10300;DHT22;5195;48.562;9.192;2022-12-29T17:11:50;13.00;51.90
10300;DHT22;5195;48.562;9.192;2022-12-29T17:17:09;13.10;51.60
10300;DHT22;5195;48.562;9.192;2022-12-29T17:19:34;12.90;52.00
10300;DHT22;5195;48.562;9.192;2022-12-29T17:21:59;12.90;51.80
10300;DHT22;5195;48.562;9.192;2022-12-29T17:24:25;12.80;52.30
10300;DHT22;5195;48.562;9.192;2022-12-29T17:26:52;12.20;53.40
10300;DHT22;5195;48.562;9.192;2022-12-29T17:31:52;12.60;52.70
10300;DHT22;5195;48.562;9.192;2022-12-29T17:34:18;12.60;52.70
10300;DHT22;5195;48.562;9.192;2022-12-29T17:36:43;12.50;52.90
10300;DHT22;5195;48.562;9.192;2022-12-29T17:39:09;12.30;53.40
10300;DHT22;5195;48.562;9.192;2022-12-29T17:41:35;12.20;53.50
10300;DHT22;5195;48.562;9.192;2022-12-29T17:44:01;12.20;53.50
10300;DHT22;5195;48.562;9.192;2022-12-29T17:46:29;12.20;53.70
10300;DHT22;5195;48.562;9.192;2022-12-29T17:48:55;12.30;53.00
10300;DHT22;5195;48.562;9.192;2022-12-29T17:51:20;12.40;53.40
10300;DHT22;5195;48.562;9.192;2022-12-29T17:53:46;12.20;53.70
10300;DHT22;5195;48.562;9.192;2022-12-29T17:56:12;12.40;53.30
10300;DHT22;5195;48.562;9.192;2022-12-29T17:58:38;12.30;53.00
10300;DHT22;5195;48.562;9.192;2022-12-29T18:01:03;12.50;52.30
10300;DHT22;5195;48.562;9.192;2022-12-29T18:03:30;12.80;51.60
10300;DHT22;5195;48.562;9.192;2022-12-29T18:05:55;13.00;51.10
10300;DHT22;5195;48.562;9.192;2022-12-29T18:08:20;13.20;50.70
10300;DHT22;5195;48.562;9.192;2022-12-29T18:10:47;13.10;51.20
10300;DHT22;5195;48.562;9.192;2022-12-29T18:15:48;12.90;51.40
10300;DHT22;5195;48.562;9.192;2022-12-29T18:18:18;12.60;52.10
10300;DHT22;5195;48.562;9.192;2022-12-29T18:20:43;12.70;51.80
10300;DHT22;5195;48.562;9.192;2022-12-29T18:23:23;12.60;52.20
10300;DHT22;5195;48.562;9.192;2022-12-29T18:25:49;13.00;50.80
10300;DHT22;5195;48.562;9.192;2022-12-29T18:28:13;13.00;51.40
10300;DHT22;5195;48.562;9.192;2022-12-29T18:30:39;13.20;51.00
10300;DHT22;5195;48.562;9.192;2022-12-29T18:33:05;12.80;52.00
10300;DHT22;5195;48.562;9.192;2022-12-29T18:35:38;12.70;51.90
10300;DHT22;5195;48.562;9.192;2022-12-29T18:38:03;12.80;51.70
10300;DHT22;5195;48.562;9.192;2022-12-29T18:40:28;13.00;51.30
10300;DHT22;5195;48.562;9.192;2022-12-29T18:42:54;13.20;50.70
10300;DHT22;5195;48.562;9.192;2022-12-29T18:45:20;13.10;51.20
10300;DHT22;5195;48.562;9.192;2022-12-29T18:47:45;13.10;50.90
10300;DHT22;5195;48.562;9.192;2022-12-29T18:50:11;12.90;51.30
10300;DHT22;5195;48.562;9.192;2022-12-29T18:52:36;12.70;52.00
10300;DHT22;5195;48.562;9.192;2022-12-29T18:55:02;12.50;52.60
10300;DHT22;5195;48.562;9.192;2022-12-29T18:57:27;12.60;52.10
10300;DHT22;5195;48.562;9.192;2022-12-29T18:59:53;12.60;52.40
10300;DHT22;5195;48.562;9.192;2022-12-29T19:02:18;12.40;52.70
10300;DHT22;5195;48.562;9.192;2022-12-29T19:04:44;12.60;52.20
10300;DHT22;5195;48.562;9.192;2022-12-29T19:07:11;12.90;51.60
10300;DHT22;5195;48.562;9.192;2022-12-29T19:09:37;13.00;51.20